Time;durP1;ratioP1;P1;durP2;ratioP2;P2;SDS_P1;SDS_P2;PMS_P1;PMS_P2;Temp;Humidity;BMP_temperature;BMP_pressure;BME280_temperature;BME280_humidity;BME280_pressure;Samples;Min_cycle;Max_cycle;Signal;HPM_P1;HPM_P2
2022/10/17 00:01:10;;;;;;;0.10;0.10;;;13.30;99.90;;;;;;5135095;27;20130;-73
2022/10/17 00:03:37;;;;;;;0.10;0.10;;;13.40;99.90;;;;;;5131521;27;20441;-74
2022/10/17 00:06:11;;;;;;;0.15;0.15;;;13.40;99.90;;;;;;5130471;27;20040;-74
2022/10/17 00:08:37;;;;;;;0.10;0.10;;;13.40;99.90;;;;;;5148080;27;20074;-74
2022/10/17 00:11:05;;;;;;;0.10;0.10;;;13.40;99.90;;;;;;5132972;27;20094;-74
2022/10/17 00:13:32;;;;;;;0.08;0.08;;;13.40;99.90;;;;;;5139567;27;20050;-74
2022/10/17 00:15:58;;;;;;;0.10;0.10;;;13.50;99.90;;;;;;5146860;27;20046;-74
2022/10/17 00:18:24;;;;;;;0.10;0.10;;;13.50;99.90;;;;;;5133334;27;20064;-73
2022/10/17 00:20:49;;;;;;;0.25;0.25;;;13.50;99.90;;;;;;5151348;27;20078;-74
2022/10/17 00:23:15;;;;;;;0.05;0.05;;;13.50;99.90;;;;;;5128744;27;20042;-74
2022/10/17 00:25:41;;;;;;;0.03;0.03;;;13.50;99.90;;;;;;5139194;27;20038;-74
2022/10/17 00:28:14;;;;;;;0.05;0.05;;;13.50;99.90;;;;;;5143615;27;20050;-74
2022/10/17 00:30:40;;;;;;;0.10;0.10;;;13.60;99.90;;;;;;5131465;27;20054;-74
2022/10/17 00:33:06;;;;;;;1.45;0.70;;;13.50;99.90;;;;;;5135448;27;20043;-74
2022/10/17 00:35:32;;;;;;;0.25;0.25;;;13.60;99.90;;;;;;5131502;27;20494;-74
2022/10/17 00:37:57;;;;;;;0.10;0.10;;;13.60;99.90;;;;;;5144235;27;20039;-74
2022/10/17 00:40:23;;;;;;;0.10;0.10;;;13.60;99.90;;;;;;5151192;27;20115;-74
2022/10/17 00:42:51;;;;;;;0.00;0.00;;;13.70;99.90;;;;;;5143669;27;20065;-74
2022/10/17 00:45:22;;;;;;;0.00;0.00;;;13.70;99.90;;;;;;5143968;27;20035;-74
2022/10/17 00:47:52;;;;;;;0.00;0.00;;;13.70;99.90;;;;;;5133435;27;20050;-74
2022/10/17 00:50:18;;;;;;;0.05;0.05;;;13.70;99.90;;;;;;5151591;27;20095;-74
2022/10/17 00:52:46;;;;;;;0.75;0.75;;;13.70;99.90;;;;;;5133981;27;20573;-74
2022/10/17 00:55:29;;;;;;;0.00;0.00;;;13.70;99.90;;;;;;5149996;27;20046;-74
2022/10/17 00:57:56;;;;;;;0.00;0.00;;;13.80;99.90;;;;;;5135992;27;20078;-74
2022/10/17 01:00:23;;;;;;;0.10;0.10;;;13.80;99.90;;;;;;5143004;27;20310;-74
2022/10/17 01:02:48;;;;;;;0.00;0.00;;;13.80;99.90;;;;;;5151518;27;20053;-74
2022/10/17 01:05:15;;;;;;;0.00;0.00;;;13.80;99.90;;;;;;5149756;27;20464;-74
2022/10/17 01:07:42;;;;;;;0.10;0.10;;;13.80;99.90;;;;;;5132161;27;20116;-74
2022/10/17 01:10:09;;;;;;;0.00;0.00;;;13.80;99.90;;;;;;5149018;27;20047;-74
2022/10/17 01:12:38;;;;;;;0.00;0.00;;;13.80;99.90;;;;;;5153835;27;20075;-74
2022/10/17 01:15:20;;;;;;;0.00;0.00;;;13.80;99.90;;;;;;5152933;27;20528;-74
2022/10/17 01:18:01;;;;;;;0.10;0.10;;;13.90;99.90;;;;;;5151056;27;20060;-74
2022/10/17 01:20:48;;;;;;;0.20;0.20;;;13.90;99.90;;;;;;5133249;27;20142;-73
2022/10/17 01:23:37;;;;;;;0.00;0.00;;;13.90;99.90;;;;;;5138628;27;20099;-73
2022/10/17 01:26:09;;;;;;;0.32;0.32;;;13.90;99.90;;;;;;5155062;27;20122;-74
2022/10/17 01:28:34;;;;;;;0.00;0.00;;;13.90;99.90;;;;;;5149597;27;20047;-74
2022/10/17 01:31:12;;;;;;;0.05;0.05;;;14.00;99.90;;;;;;5137769;27;20175;-74
2022/10/17 01:33:46;;;;;;;0.10;0.10;;;13.90;99.90;;;;;;5150543;27;20381;-74
2022/10/17 01:36:50;;;;;;;0.10;0.10;;;13.90;99.90;;;;;;5143617;27;20034;-74
2022/10/17 01:39:48;;;;;;;0.10;0.10;;;14.00;99.90;;;;;;5132184;27;20090;-74
2022/10/17 01:42:30;;;;;;;0.00;0.00;;;13.90;99.90;;;;;;5148297;27;20047;-74
2022/10/17 01:45:05;;;;;;;0.10;0.10;;;13.80;99.90;;;;;;5148361;27;20502;-74
2022/10/17 01:47:33;;;;;;;0.35;0.35;;;13.90;99.90;;;;;;5115929;27;20081;-74
2022/10/17 01:50:11;;;;;;;0.10;0.10;;;13.80;99.90;;;;;;5133591;27;20039;-74
2022/10/17 01:52:41;;;;;;;0.10;0.10;;;13.80;99.90;;;;;;5151606;27;20529;-74
2022/10/17 01:55:13;;;;;;;0.00;0.00;;;13.70;99.90;;;;;;5134908;27;20047;-74
2022/10/17 01:57:56;;;;;;;0.10;0.10;;;13.80;99.90;;;;;;5154958;27;20046;-74
2022/10/17 02:00:23;;;;;;;0.10;0.10;;;13.80;99.90;;;;;;5151676;27;20470;-74
2022/10/17 02:02:54;;;;;;;0.20;0.20;;;13.70;99.90;;;;;;5133505;27;20432;-74
2022/10/17 02:05:25;;;;;;;0.10;0.10;;;13.80;99.90;;;;;;5153653;27;20046;-74
2022/10/17 02:07:51;;;;;;;0.20;0.20;;;13.80;99.90;;;;;;5153553;27;20100;-74
2022/10/17 02:10:34;;;;;;;0.32;0.32;;;13.70;99.90;;;;;;5130785;27;20051;-74
2022/10/17 02:13:09;;;;;;;0.10;0.10;;;13.70;99.90;;;;;;5133249;27;20078;-74
2022/10/17 02:16:05;;;;;;;0.10;0.10;;;13.70;99.90;;;;;;5137917;27;20077;-74
2022/10/17 02:19:21;;;;;;;0.20;0.20;;;13.70;99.90;;;;;;5152314;27;20502;-74
2022/10/17 02:22:16;;;;;;;0.00;0.00;;;13.60;99.90;;;;;;5091424;27;20051;-74
2022/10/17 02:24:54;;;;;;;0.00;0.00;;;13.60;99.90;;;;;;5147619;27;20078;-74
2022/10/17 02:27:32;;;;;;;0.10;0.10;;;13.60;99.90;;;;;;5142476;27;20037;-73
2022/10/17 02:30:05;;;;;;;0.10;0.10;;;13.70;99.90;;;;;;5144982;27;20047;-74
2022/10/17 02:32:35;;;;;;;0.40;0.40;;;13.60;99.90;;;;;;5133552;27;20066;-74
2022/10/17 02:35:04;;;;;;;0.10;0.10;;;13.60;99.90;;;;;;5135051;27;20379;-74
2022/10/17 02:37:31;;;;;;;0.10;0.10;;;13.60;99.90;;;;;;5133545;27;20039;-74
2022/10/17 02:39:59;;;;;;;2.28;2.08;;;13.60;99.90;;;;;;5147434;27;20046;-74
2022/10/17 02:42:26;;;;;;;0.10;0.10;;;13.60;99.90;;;;;;5151656;27;20066;-74
2022/10/17 02:44:53;;;;;;;0.00;0.00;;;13.60;99.90;;;;;;5141035;27;20099;-74
2022/10/17 02:47:30;;;;;;;0.32;0.25;;;13.60;99.90;;;;;;5153456;27;20043;-74
2022/10/17 02:49:57;;;;;;;9.40;2.05;;;13.60;99.90;;;;;;5154245;27;20064;-74
2022/10/17 02:52:47;;;;;;;0.10;0.10;;;13.60;99.90;;;;;;5151148;27;20047;-74
2022/10/17 02:55:19;;;;;;;0.10;0.10;;;13.60;99.90;;;;;;5131829;27;20068;-74
2022/10/17 02:57:51;;;;;;;0.00;0.00;;;13.60;99.90;;;;;;5133019;27;20053;-74
2022/10/17 03:00:20;;;;;;;0.08;0.08;;;13.60;99.90;;;;;;5148131;27;20051;-73
2022/10/17 03:02:48;;;;;;;0.47;0.47;;;13.60;99.90;;;;;;5153513;27;20585;-74
2022/10/17 03:05:22;;;;;;;0.03;0.03;;;13.60;99.90;;;;;;5133597;27;20035;-74
2022/10/17 03:07:47;;;;;;;0.35;0.35;;;13.60;99.90;;;;;;5133374;27;20054;-74
2022/10/17 03:10:13;;;;;;;0.10;0.10;;;13.60;99.90;;;;;;5152150;27;20390;-74
2022/10/17 03:12:39;;;;;;;0.10;0.10;;;13.60;99.90;;;;;;5147246;27;20066;-74
2022/10/17 03:15:05;;;;;;;0.05;0.05;;;13.60;99.90;;;;;;5132221;27;20031;-74
2022/10/17 03:17:31;;;;;;;0.10;0.10;;;13.60;99.90;;;;;;5129988;27;20051;-74
2022/10/17 03:19:57;;;;;;;0.08;0.08;;;13.60;99.90;;;;;;5152548;27;20755;-74
2022/10/17 03:22:22;;;;;;;0.10;0.10;;;13.60;99.90;;;;;;5131826;27;20053;-74
2022/10/17 03:24:48;;;;;;;0.10;0.10;;;13.70;99.90;;;;;;5146682;27;20039;-74
2022/10/17 03:27:14;;;;;;;0.10;0.10;;;13.70;99.90;;;;;;5151882;27;20027;-74
2022/10/17 03:29:39;;;;;;;0.40;0.40;;;13.70;99.90;;;;;;5141035;27;20526;-73
2022/10/17 03:32:05;;;;;;;0.45;0.45;;;13.70;99.90;;;;;;5132078;27;20045;-74
2022/10/17 03:34:30;;;;;;;0.65;0.65;;;13.70;99.90;;;;;;5140923;27;20486;-74
2022/10/17 03:36:56;;;;;;;0.10;0.10;;;13.70;99.90;;;;;;5141688;27;20046;-74
2022/10/17 03:39:21;;;;;;;0.00;0.00;;;13.70;99.90;;;;;;5133683;27;20057;-74
2022/10/17 03:41:47;;;;;;;0.00;0.00;;;13.70;99.90;;;;;;5152659;27;20074;-74
2022/10/17 03:44:13;;;;;;;0.10;0.10;;;13.60;99.90;;;;;;5134983;27;20131;-74
2022/10/17 03:46:38;;;;;;;0.38;0.38;;;13.70;99.90;;;;;;5132537;27;20043;-74
2022/10/17 03:49:04;;;;;;;0.15;0.15;;;13.70;99.90;;;;;;5131626;27;20146;-74
2022/10/17 03:51:31;;;;;;;0.35;0.35;;;13.70;99.90;;;;;;5146809;27;20041;-74
2022/10/17 03:53:56;;;;;;;0.03;0.03;;;13.70;99.90;;;;;;5135982;27;20035;-74
2022/10/17 03:56:23;;;;;;;0.00;0.00;;;13.70;99.90;;;;;;5141635;27;20375;-74
2022/10/17 03:58:49;;;;;;;0.57;0.30;;;13.70;99.90;;;;;;5135999;27;20070;-74
2022/10/17 04:01:17;;;;;;;0.73;0.73;;;13.70;99.90;;;;;;5128860;27;20489;-74
2022/10/17 04:03:43;;;;;;;0.70;0.70;;;13.70;99.90;;;;;;5131718;27;20096;-74
2022/10/17 04:06:11;;;;;;;0.43;0.25;;;13.60;99.90;;;;;;5131639;27;20479;-74
2022/10/17 04:08:37;;;;;;;0.75;0.43;;;13.60;99.90;;;;;;5147075;27;20042;-74
2022/10/17 04:11:05;;;;;;;0.20;0.20;;;13.60;99.90;;;;;;5135926;27;20039;-74
2022/10/17 04:13:31;;;;;;;0.73;0.73;;;13.60;99.90;;;;;;5119542;27;20065;-74
2022/10/17 04:16:00;;;;;;;0.35;0.35;;;13.60;99.90;;;;;;5131515;27;20043;-74
2022/10/17 04:18:26;;;;;;;0.57;0.57;;;13.60;99.90;;;;;;5130514;27;20510;-74
2022/10/17 04:20:52;;;;;;;0.20;0.20;;;13.70;99.90;;;;;;5136621;27;20107;-74
2022/10/17 04:23:18;;;;;;;0.10;0.10;;;13.70;99.90;;;;;;5135726;27;20034;-74
2022/10/17 04:25:43;;;;;;;0.10;0.10;;;13.70;99.90;;;;;;5148521;27;20046;-74
2022/10/17 04:28:09;;;;;;;0.10;0.10;;;13.70;99.90;;;;;;5132222;27;20362;-74
2022/10/17 04:30:35;;;;;;;0.10;0.10;;;13.70;99.90;;;;;;5148767;27;20037;-74
2022/10/17 04:33:01;;;;;;;0.10;0.10;;;13.80;99.90;;;;;;5131218;27;20116;-74
2022/10/17 04:35:26;;;;;;;0.20;0.20;;;13.80;99.90;;;;;;5130449;27;20382;-74
2022/10/17 04:37:52;;;;;;;0.10;0.10;;;13.80;99.90;;;;;;5139580;27;20075;-74
2022/10/17 04:40:17;;;;;;;0.10;0.10;;;13.80;99.90;;;;;;5141960;27;20035;-74
2022/10/17 04:42:43;;;;;;;0.43;0.43;;;13.80;99.90;;;;;;5139012;27;20050;-74
2022/10/17 04:45:09;;;;;;;0.10;0.10;;;13.90;99.90;;;;;;5136587;27;20107;-74
2022/10/17 04:47:34;;;;;;;2.10;1.45;;;13.90;99.90;;;;;;5135381;27;20053;-74
2022/10/17 04:50:00;;;;;;;0.10;0.10;;;13.90;99.90;;;;;;5116984;27;20047;-74
2022/10/17 04:52:26;;;;;;;0.08;0.08;;;13.90;99.90;;;;;;5134023;27;20043;-74
2022/10/17 04:54:51;;;;;;;0.10;0.10;;;13.90;99.90;;;;;;5149899;27;20043;-74
2022/10/17 04:57:18;;;;;;;0.25;0.25;;;13.90;99.90;;;;;;5155624;27;20038;-74
2022/10/17 04:59:44;;;;;;;0.20;0.20;;;13.90;99.90;;;;;;5153138;27;20035;-73
2022/10/17 05:02:10;;;;;;;0.13;0.13;;;14.00;99.90;;;;;;5148387;27;20050;-74
2022/10/17 05:04:35;;;;;;;0.63;0.63;;;14.00;99.90;;;;;;5138465;27;20465;-74
2022/10/17 05:07:01;;;;;;;0.50;0.50;;;14.00;99.90;;;;;;5155775;27;20423;-75
2022/10/17 05:09:27;;;;;;;0.10;0.10;;;14.00;99.90;;;;;;5146646;27;20066;-74
2022/10/17 05:11:52;;;;;;;0.10;0.10;;;14.00;99.90;;;;;;5135369;27;20112;-74
2022/10/17 05:14:18;;;;;;;0.90;0.55;;;14.00;99.90;;;;;;5149001;27;20050;-74
2022/10/17 05:16:43;;;;;;;0.10;0.10;;;14.10;99.90;;;;;;5155150;27;20046;-74
2022/10/17 05:19:10;;;;;;;0.20;0.20;;;14.00;99.90;;;;;;5137812;27;20574;-75
2022/10/17 05:21:36;;;;;;;0.10;0.10;;;14.10;99.90;;;;;;5134086;27;20031;-74
2022/10/17 05:24:07;;;;;;;0.00;0.00;;;14.10;99.90;;;;;;5139128;27;20383;-74
2022/10/17 05:26:33;;;;;;;0.10;0.10;;;14.10;99.90;;;;;;5133906;27;20234;-74
2022/10/17 05:29:04;;;;;;;0.13;0.13;;;14.10;99.90;;;;;;5145212;27;20050;-74
2022/10/17 05:31:30;;;;;;;0.10;0.10;;;14.10;99.90;;;;;;5154106;27;20037;-74
2022/10/17 05:34:00;;;;;;;0.17;0.17;;;14.10;99.90;;;;;;5151286;27;20051;-75
2022/10/17 05:36:26;;;;;;;0.30;0.30;;;14.10;99.90;;;;;;5135135;27;20054;-74
2022/10/17 05:38:51;;;;;;;0.00;0.00;;;14.10;99.90;;;;;;5155643;27;20045;-74
2022/10/17 05:41:18;;;;;;;0.43;0.43;;;14.20;99.90;;;;;;5153981;27;20042;-74
2022/10/17 05:43:44;;;;;;;0.30;0.30;;;14.20;99.90;;;;;;5140034;27;20047;-74
2022/10/17 05:46:10;;;;;;;0.00;0.00;;;14.20;99.90;;;;;;5133887;27;20050;-74
2022/10/17 05:48:36;;;;;;;0.10;0.10;;;14.20;99.90;;;;;;5123535;27;20127;-74
2022/10/17 05:51:05;;;;;;;0.13;0.13;;;14.20;99.90;;;;;;5149791;27;20074;-74
2022/10/17 05:53:32;;;;;;;0.15;0.15;;;14.30;99.90;;;;;;5154315;27;20042;-74
2022/10/17 05:55:59;;;;;;;0.10;0.10;;;14.30;99.90;;;;;;5134156;27;20039;-74
2022/10/17 05:58:25;;;;;;;0.00;0.00;;;14.30;99.90;;;;;;5152930;27;20053;-74
2022/10/17 06:00:51;;;;;;;0.10;0.10;;;14.40;99.90;;;;;;5144884;27;20146;-73
2022/10/17 06:03:17;;;;;;;1.27;1.17;;;14.40;99.90;;;;;;5153855;27;20034;-74
2022/10/17 06:05:42;;;;;;;0.25;0.25;;;14.40;99.90;;;;;;5136576;27;20050;-74
2022/10/17 06:08:08;;;;;;;0.10;0.10;;;14.40;99.90;;;;;;5149908;27;20431;-74
2022/10/17 06:10:33;;;;;;;0.85;0.85;;;14.40;99.90;;;;;;5154383;27;20042;-74
2022/10/17 06:12:59;;;;;;;0.00;0.00;;;14.50;99.90;;;;;;5142971;27;20087;-74
2022/10/17 06:15:24;;;;;;;0.10;0.10;;;14.50;99.90;;;;;;5137926;27;20039;-73
2022/10/17 06:17:50;;;;;;;0.20;0.20;;;14.50;99.90;;;;;;5144731;27;20043;-74
2022/10/17 06:20:15;;;;;;;0.10;0.10;;;14.60;99.90;;;;;;5144342;27;20116;-74
2022/10/17 06:22:42;;;;;;;0.20;0.20;;;14.50;99.90;;;;;;5147970;27;20046;-74
2022/10/17 06:25:08;;;;;;;0.10;0.10;;;14.50;99.90;;;;;;5141190;27;20121;-74
2022/10/17 06:27:33;;;;;;;0.10;0.10;;;14.60;99.90;;;;;;5153864;27;20050;-74
2022/10/17 06:29:59;;;;;;;0.00;0.00;;;14.60;99.90;;;;;;5153421;27;20038;-74
2022/10/17 06:32:24;;;;;;;0.40;0.40;;;14.60;99.90;;;;;;5152297;27;20204;-74
2022/10/17 06:34:50;;;;;;;0.43;0.43;;;14.60;99.90;;;;;;5153273;27;20049;-74
2022/10/17 06:37:15;;;;;;;0.00;0.00;;;14.60;99.90;;;;;;5148045;27;20050;-74
2022/10/17 06:39:41;;;;;;;0.10;0.10;;;14.60;99.90;;;;;;5134862;27;20039;-74
2022/10/17 06:42:07;;;;;;;0.30;0.30;;;14.60;99.90;;;;;;5147791;27;20046;-74
2022/10/17 06:44:32;;;;;;;0.28;0.28;;;14.70;99.90;;;;;;5153078;27;20046;-73
2022/10/17 06:46:58;;;;;;;0.10;0.10;;;14.70;99.90;;;;;;5137636;27;20035;-74
2022/10/17 06:49:24;;;;;;;0.13;0.13;;;14.70;99.90;;;;;;5114892;27;20069;-74
2022/10/17 06:51:50;;;;;;;0.30;0.30;;;14.70;99.90;;;;;;5135165;27;20573;-72
2022/10/17 06:54:16;;;;;;;0.43;0.43;;;14.70;99.90;;;;;;5139494;27;20066;-71
2022/10/17 06:56:41;;;;;;;0.00;0.00;;;14.70;99.90;;;;;;5147318;27;20046;-71
2022/10/17 06:59:09;;;;;;;0.47;0.35;;;14.80;99.90;;;;;;5143287;27;20163;-71
2022/10/17 07:01:34;;;;;;;0.32;0.32;;;14.80;99.90;;;;;;5140836;27;20054;-74
2022/10/17 07:04:00;;;;;;;0.40;0.40;;;14.80;99.90;;;;;;5132334;27;20051;-73
2022/10/17 07:06:25;;;;;;;0.32;0.32;;;14.90;99.90;;;;;;5149346;27;20509;-74
2022/10/17 07:08:51;;;;;;;0.00;0.00;;;14.90;99.90;;;;;;5149426;27;20047;-73
2022/10/17 07:11:19;;;;;;;0.35;0.35;;;15.00;99.90;;;;;;5141861;27;20042;-73
2022/10/17 07:13:45;;;;;;;0.30;0.30;;;15.00;99.90;;;;;;5143986;27;20039;-74
2022/10/17 07:16:12;;;;;;;0.25;0.25;;;15.00;99.90;;;;;;5143202;27;20060;-73
2022/10/17 07:18:38;;;;;;;3.50;0.95;;;15.10;99.90;;;;;;5143465;27;20070;-73
2022/10/17 07:21:05;;;;;;;0.10;0.10;;;15.10;99.90;;;;;;5143971;27;20502;-74
2022/10/17 07:23:30;;;;;;;0.45;0.45;;;15.10;99.90;;;;;;5138500;27;20042;-74
2022/10/17 07:26:07;;;;;;;0.20;0.20;;;15.20;99.90;;;;;;5140413;27;20053;-74
2022/10/17 07:28:35;;;;;;;0.10;0.10;;;15.20;99.90;;;;;;5146273;27;20053;-73
2022/10/17 07:31:08;;;;;;;0.80;0.80;;;15.20;99.90;;;;;;5139105;27;20047;-74
2022/10/17 07:33:34;;;;;;;6.97;1.65;;;15.20;99.90;;;;;;5131334;27;20172;-73
2022/10/17 07:36:00;;;;;;;0.22;0.22;;;15.20;99.90;;;;;;5152640;27;20494;-74
2022/10/17 07:38:27;;;;;;;0.10;0.10;;;15.30;99.90;;;;;;5133136;27;20431;-74
2022/10/17 07:40:54;;;;;;;0.25;0.25;;;15.30;99.90;;;;;;5148644;27;20378;-74
2022/10/17 07:43:20;;;;;;;0.13;0.13;;;15.30;99.90;;;;;;5130956;27;20055;-74
2022/10/17 07:45:45;;;;;;;0.38;0.38;;;15.40;99.90;;;;;;5141329;27;20035;-73
2022/10/17 07:48:11;;;;;;;0.10;0.10;;;15.40;99.90;;;;;;5148548;27;20043;-73
2022/10/17 07:50:36;;;;;;;0.10;0.10;;;15.50;99.90;;;;;;5151893;27;20050;-74
2022/10/17 07:53:02;;;;;;;0.10;0.10;;;15.50;99.90;;;;;;5132668;27;20533;-74
2022/10/17 07:55:28;;;;;;;0.20;0.20;;;15.50;99.90;;;;;;5134667;27;20054;-74
2022/10/17 07:57:53;;;;;;;0.10;0.10;;;15.50;99.90;;;;;;5152691;27;20046;-73
2022/10/17 08:00:19;;;;;;;0.10;0.10;;;15.50;99.90;;;;;;5147643;27;20039;-73
2022/10/17 08:02:44;;;;;;;0.10;0.10;;;15.50;99.90;;;;;;5120769;27;20050;-73
2022/10/17 08:05:10;;;;;;;0.10;0.10;;;15.60;99.90;;;;;;5147798;27;20085;-73
2022/10/17 08:07:36;;;;;;;0.45;0.45;;;15.60;99.90;;;;;;5144377;27;20050;-74
2022/10/17 08:10:01;;;;;;;0.10;0.10;;;15.60;99.90;;;;;;5141718;27;20058;-74
2022/10/17 08:12:30;;;;;;;0.30;0.30;;;15.70;99.90;;;;;;5145812;27;20389;-71
2022/10/17 08:14:56;;;;;;;0.70;0.55;;;15.70;99.90;;;;;;5135261;27;20051;-72
2022/10/17 08:17:22;;;;;;;0.10;0.10;;;15.70;99.90;;;;;;5134113;27;20118;-72
2022/10/17 08:19:47;;;;;;;0.10;0.10;;;15.70;99.90;;;;;;5133799;27;20050;-72
2022/10/17 08:22:13;;;;;;;0.00;0.00;;;15.70;99.90;;;;;;5130657;27;20117;-72
2022/10/17 08:24:38;;;;;;;0.00;0.00;;;15.70;99.90;;;;;;5145929;27;20039;-74
2022/10/17 08:27:10;;;;;;;0.10;0.10;;;15.70;99.90;;;;;;5139497;27;20776;-74
2022/10/17 08:29:39;;;;;;;0.22;0.22;;;15.70;99.90;;;;;;5151317;27;20043;-74
2022/10/17 08:32:06;;;;;;;0.10;0.10;;;15.70;99.90;;;;;;5150779;27;20121;-73
2022/10/17 08:34:32;;;;;;;0.75;0.55;;;15.80;99.90;;;;;;5146831;27;20050;-74
2022/10/17 08:36:57;;;;;;;0.88;0.75;;;15.80;99.90;;;;;;5131072;27;20047;-74
2022/10/17 08:39:23;;;;;;;0.10;0.10;;;15.80;99.90;;;;;;5130701;27;20066;-74
2022/10/17 08:41:56;;;;;;;0.40;0.40;;;15.90;99.90;;;;;;5141058;27;20401;-74
2022/10/17 08:45:05;;;;;;;0.10;0.10;;;15.90;99.90;;;;;;5130655;28;20076;-74
2022/10/17 08:47:38;;;;;;;0.63;0.40;;;16.00;99.90;;;;;;5131032;27;20043;-75
2022/10/17 08:50:10;;;;;;;0.25;0.25;;;16.00;99.90;;;;;;5131415;27;20035;-73
2022/10/17 08:52:49;;;;;;;0.20;0.20;;;16.00;99.90;;;;;;5130625;27;20128;-74
2022/10/17 08:55:21;;;;;;;0.30;0.30;;;16.00;99.90;;;;;;5137937;27;20046;-72
2022/10/17 08:57:47;;;;;;;1.17;0.57;;;16.10;99.90;;;;;;5138764;27;20087;-76
2022/10/17 09:00:19;;;;;;;0.20;0.20;;;16.00;99.90;;;;;;5122964;27;20418;-75
2022/10/17 09:03:06;;;;;;;2.72;1.70;;;16.10;99.90;;;;;;5151524;27;20053;-75
2022/10/17 09:06:02;;;;;;;0.43;0.43;;;16.10;99.90;;;;;;5151030;27;20391;-76
2022/10/17 09:08:34;;;;;;;0.30;0.30;;;16.20;99.90;;;;;;5131118;27;20050;-76
2022/10/17 09:11:08;;;;;;;2.25;1.40;;;16.20;99.90;;;;;;5130982;27;20039;-74
2022/10/17 09:13:53;;;;;;;0.40;0.40;;;16.10;99.90;;;;;;5138736;27;20047;-75
2022/10/17 09:16:46;;;;;;;0.10;0.10;;;16.10;99.90;;;;;;5149043;27;20057;-77
2022/10/17 09:19:20;;;;;;;0.13;0.13;;;16.10;99.90;;;;;;5149962;27;20046;-78
2022/10/17 09:21:53;;;;;;;0.43;0.43;;;16.10;99.90;;;;;;5139595;27;20046;-78
2022/10/17 09:24:36;;;;;;;0.50;0.50;;;16.00;99.90;;;;;;5142825;27;20043;-78
2022/10/17 09:27:02;;;;;;;0.25;0.25;;;16.00;99.90;;;;;;5124789;27;20092;-81
2022/10/17 09:29:29;;;;;;;0.57;0.43;;;16.00;99.90;;;;;;5133743;27;20129;-82
2022/10/17 09:32:07;;;;;;;0.50;0.50;;;16.00;99.90;;;;;;5123178;27;20043;-79
2022/10/17 09:34:33;;;;;;;0.10;0.10;;;16.00;99.90;;;;;;5136201;27;20076;-81
2022/10/17 09:37:00;;;;;;;0.43;0.43;;;16.00;99.90;;;;;;5135918;27;20100;-82
2022/10/17 09:39:30;;;;;;;0.05;0.05;;;16.00;99.90;;;;;;5134286;27;20082;-82
2022/10/17 09:41:58;;;;;;;0.22;0.22;;;16.00;99.90;;;;;;5143548;27;20064;-79
2022/10/17 09:44:24;;;;;;;4.95;2.13;;;15.90;99.90;;;;;;5135206;27;20944;-79
2022/10/17 09:47:21;;;;;;;0.68;0.68;;;16.00;99.90;;;;;;5153680;27;20094;-78
2022/10/17 09:49:48;;;;;;;1.27;1.20;;;15.90;99.90;;;;;;5141845;27;20422;-79
2022/10/17 09:52:20;;;;;;;0.25;0.25;;;15.90;99.90;;;;;;5115683;27;20055;-80
2022/10/17 09:54:52;;;;;;;1.85;0.73;;;15.90;99.90;;;;;;5126809;27;20355;-81
2022/10/17 09:57:19;;;;;;;0.40;0.40;;;15.90;99.90;;;;;;5125128;27;20387;-80
2022/10/17 09:59:54;;;;;;;1.00;0.47;;;15.90;99.90;;;;;;5141001;27;20043;-82
2022/10/17 10:02:22;;;;;;;0.10;0.10;;;15.90;99.90;;;;;;5145215;27;20491;-83
2022/10/17 10:05:01;;;;;;;2.47;1.48;;;15.90;99.90;;;;;;5134033;27;20070;-82
2022/10/17 10:07:35;;;;;;;0.45;0.45;;;15.90;99.90;;;;;;5142716;27;20125;-82
2022/10/17 10:10:04;;;;;;;0.30;0.30;;;15.90;99.90;;;;;;5154761;27;20137;-83
2022/10/17 10:12:32;;;;;;;0.13;0.13;;;15.90;99.90;;;;;;5152694;27;20424;-83
2022/10/17 10:14:58;;;;;;;1.85;0.30;;;15.90;99.90;;;;;;5137735;27;20035;-83
2022/10/17 10:17:40;;;;;;;0.15;0.15;;;15.90;99.90;;;;;;5132210;27;20118;-82
2022/10/17 10:20:35;;;;;;;0.30;0.30;;;15.90;99.90;;;;;;5135400;27;20371;-84
2022/10/17 10:23:18;;;;;;;0.73;0.63;;;15.90;99.90;;;;;;5146927;27;20042;-82
2022/10/17 10:25:49;;;;;;;0.20;0.20;;;15.90;99.90;;;;;;5135581;27;20129;-84
2022/10/17 10:28:16;;;;;;;0.25;0.25;;;15.90;99.90;;;;;;5141343;27;20049;-83
2022/10/17 10:30:47;;;;;;;0.10;0.10;;;15.90;99.90;;;;;;5127157;27;20130;-84
2022/10/17 10:33:12;;;;;;;0.10;0.10;;;15.90;99.90;;;;;;5135652;27;20035;-82
2022/10/17 10:35:38;;;;;;;0.28;0.28;;;16.00;99.90;;;;;;5141516;27;20501;-84
2022/10/17 10:38:12;;;;;;;0.00;0.00;;;16.00;99.90;;;;;;5137060;27;20504;-83
2022/10/17 10:40:45;;;;;;;0.10;0.10;;;16.00;99.90;;;;;;5137273;27;20040;-83
2022/10/17 10:43:22;;;;;;;0.88;0.47;;;16.00;99.90;;;;;;5133514;27;20192;-84
2022/10/17 10:45:49;;;;;;;0.85;0.85;;;16.10;99.90;;;;;;5139850;27;20035;-83
2022/10/17 10:48:22;;;;;;;2.83;1.00;;;16.10;99.90;;;;;;5150355;27;20046;-84
2022/10/17 10:50:59;;;;;;;1.05;0.73;;;16.10;99.90;;;;;;5139913;27;20070;-83
2022/10/17 10:53:49;;;;;;;0.10;0.10;;;16.10;99.90;;;;;;5125016;27;20057;-83
2022/10/17 10:56:28;;;;;;;0.20;0.20;;;16.10;99.90;;;;;;5142857;27;20070;-83
2022/10/17 10:59:34;;;;;;;0.80;0.80;;;16.20;99.90;;;;;;5148429;27;20378;-83
2022/10/17 11:02:17;;;;;;;0.10;0.10;;;16.20;99.90;;;;;;5139644;27;20142;-82
2022/10/17 11:05:11;;;;;;;2.47;1.27;;;16.20;99.90;;;;;;5132154;27;20510;-83
2022/10/17 11:07:49;;;;;;;0.20;0.20;;;16.10;99.90;;;;;;5133098;27;20070;-81
2022/10/17 11:10:29;;;;;;;0.10;0.10;;;16.10;99.90;;;;;;5145195;27;20043;-83
2022/10/17 11:13:10;;;;;;;0.57;0.57;;;16.10;99.90;;;;;;5132048;27;20528;-83
2022/10/17 11:15:48;;;;;;;0.20;0.20;;;16.10;99.90;;;;;;5153133;27;20039;-83
2022/10/17 11:18:45;;;;;;;0.00;0.00;;;16.10;99.90;;;;;;5152585;27;20331;-83
2022/10/17 11:21:33;;;;;;;0.10;0.10;;;16.10;99.90;;;;;;5148574;27;20556;-84
2022/10/17 11:24:01;;;;;;;0.47;0.47;;;16.10;99.90;;;;;;5152794;27;20043;-84
2022/10/17 11:26:34;;;;;;;0.30;0.30;;;16.10;99.90;;;;;;5122801;27;20092;-85
2022/10/17 11:29:03;;;;;;;0.90;0.52;;;16.20;99.90;;;;;;5131299;27;20051;-84
2022/10/17 11:31:38;;;;;;;0.20;0.20;;;16.20;99.90;;;;;;5142072;27;20039;-84
2022/10/17 11:34:19;;;;;;;0.65;0.65;;;16.20;99.90;;;;;;5141380;27;20042;-84
2022/10/17 11:36:49;;;;;;;0.45;0.45;;;16.10;99.90;;;;;;5128542;27;20043;-84
2022/10/17 11:39:17;;;;;;;0.20;0.20;;;16.20;99.90;;;;;;5133883;27;20092;-84
2022/10/17 11:41:53;;;;;;;1.58;0.63;;;16.20;99.90;;;;;;5140936;27;20070;-84
2022/10/17 11:44:34;;;;;;;0.00;0.00;;;16.20;99.90;;;;;;5131334;27;20095;-84
2022/10/17 11:47:41;;;;;;;2.78;0.80;;;16.20;99.90;;;;;;5119057;27;20047;-85
2022/10/17 11:50:16;;;;;;;0.25;0.25;;;16.20;99.90;;;;;;5139939;27;20118;-82
2022/10/17 11:52:47;;;;;;;0.10;0.10;;;16.20;99.90;;;;;;5137236;27;20095;-84
2022/10/17 11:55:20;;;;;;;0.00;0.00;;;16.20;99.90;;;;;;5149222;27;20118;-84
2022/10/17 11:58:04;;;;;;;0.17;0.17;;;16.30;99.90;;;;;;5146459;27;20099;-84
2022/10/17 12:00:57;;;;;;;0.20;0.20;;;16.20;99.90;;;;;;5142648;27;20120;-83
2022/10/17 12:03:45;;;;;;;0.77;0.60;;;16.20;99.90;;;;;;5125799;27;20043;-83
2022/10/17 12:06:15;;;;;;;0.10;0.10;;;16.20;99.90;;;;;;5135566;27;20563;-83
2022/10/17 12:09:10;;;;;;;0.03;0.03;;;16.20;99.90;;;;;;5137583;27;20065;-84
2022/10/17 12:11:52;;;;;;;0.10;0.10;;;16.20;99.90;;;;;;5134910;27;20051;-84
2022/10/17 12:14:37;;;;;;;0.20;0.20;;;16.20;99.90;;;;;;5138494;27;20442;-84
2022/10/17 12:17:05;;;;;;;4.35;0.40;;;16.10;99.90;;;;;;5142457;27;20068;-83
2022/10/17 12:19:36;;;;;;;0.20;0.20;;;16.10;99.90;;;;;;5129464;27;20054;-83
2022/10/17 12:22:21;;;;;;;0.35;0.35;;;16.10;99.90;;;;;;5125706;27;20080;-83
2022/10/17 12:24:59;;;;;;;8.68;0.95;;;16.10;99.90;;;;;;5124337;27;20046;-83
2022/10/17 12:27:36;;;;;;;0.22;0.22;;;16.10;99.90;;;;;;5130728;27;20039;-83
2022/10/17 12:30:11;;;;;;;0.85;0.82;;;16.10;99.90;;;;;;5125117;27;20270;-83
2022/10/17 12:32:37;;;;;;;0.10;0.10;;;16.10;99.90;;;;;;5127327;27;20050;-83
2022/10/17 12:35:04;;;;;;;0.95;0.95;;;16.10;99.90;;;;;;5135848;27;20477;-83
2022/10/17 12:37:44;;;;;;;0.20;0.20;;;16.20;99.90;;;;;;5132726;27;20043;-83
2022/10/17 12:40:35;;;;;;;0.35;0.32;;;16.20;99.90;;;;;;5136660;27;20178;-84
2022/10/17 12:43:21;;;;;;;0.20;0.20;;;16.20;99.90;;;;;;5137491;27;20499;-84
2022/10/17 12:45:59;;;;;;;0.43;0.43;;;16.30;99.90;;;;;;5129307;27;20038;-85
2022/10/17 12:48:37;;;;;;;0.10;0.10;;;16.30;99.90;;;;;;5133961;27;20802;-84
2022/10/17 12:51:20;;;;;;;0.10;0.10;;;16.20;99.90;;;;;;5130501;27;20047;-84
2022/10/17 12:53:49;;;;;;;0.32;0.32;;;16.30;99.90;;;;;;5140516;27;20058;-86
2022/10/17 12:56:19;;;;;;;0.63;0.57;;;16.30;99.90;;;;;;5150283;27;20092;-85
2022/10/17 12:58:47;;;;;;;0.22;0.22;;;16.30;99.90;;;;;;5140626;27;20397;-84
2022/10/17 13:01:33;;;;;;;0.38;0.38;;;16.30;99.90;;;;;;5112165;28;20051;-85
2022/10/17 13:04:05;;;;;;;0.20;0.20;;;16.40;99.90;;;;;;5132272;27;20398;-84
2022/10/17 13:06:36;;;;;;;0.10;0.10;;;16.40;99.90;;;;;;5141740;27;20043;-85
2022/10/17 13:09:23;;;;;;;0.47;0.47;;;16.40;99.90;;;;;;5124210;27;20044;-84